createdAt,value
2022-10-06T00:00:23.367Z,14.67
2022-10-06T00:02:51.027Z,14.64
2022-10-06T00:05:18.984Z,14.61
2022-10-06T00:07:46.556Z,14.62
2022-10-06T00:10:14.938Z,14.57
2022-10-06T00:12:45.874Z,14.53
2022-10-06T00:15:16.725Z,14.51
2022-10-06T00:17:44.360Z,14.51
2022-10-06T00:20:12.851Z,14.47
2022-10-06T00:22:42.758Z,14.47
2022-10-06T00:25:12.312Z,14.47
2022-10-06T00:27:41.889Z,14.47
2022-10-06T00:30:13.454Z,14.46
2022-10-06T00:32:41.484Z,14.44
2022-10-06T00:35:09.882Z,14.46
2022-10-06T00:37:39.137Z,14.43
2022-10-06T00:40:09.793Z,14.44
2022-10-06T00:42:51.022Z,14.42
2022-10-06T00:45:25.702Z,14.41
2022-10-06T00:47:55.249Z,14.39
2022-10-06T00:50:23.135Z,14.38
2022-10-06T00:52:51.065Z,14.37
2022-10-06T00:55:20.242Z,14.34
2022-10-06T00:57:48.504Z,14.32
2022-10-06T01:00:16.334Z,14.29
2022-10-06T01:02:50.273Z,14.24
2022-10-06T01:05:24.872Z,14.21
2022-10-06T01:07:52.893Z,14.15
2022-10-06T01:10:20.920Z,14.14
2022-10-06T01:12:49.041Z,14.10
2022-10-06T01:15:17.592Z,14.05
2022-10-06T01:17:52.300Z,14.00
2022-10-06T01:20:21.807Z,13.96
2022-10-06T01:22:53.964Z,13.95
2022-10-06T01:25:23.077Z,13.91
2022-10-06T01:27:54.544Z,13.86
2022-10-06T01:30:29.488Z,13.81
2022-10-06T01:32:57.413Z,13.79
2022-10-06T01:35:25.892Z,13.77
2022-10-06T01:37:58.757Z,13.71
2022-10-06T01:40:29.123Z,13.68
2022-10-06T01:42:59.496Z,13.65
2022-10-06T01:45:28.201Z,13.62
2022-10-06T01:47:55.786Z,13.58
2022-10-06T01:50:23.541Z,13.57
2022-10-06T01:52:51.133Z,13.53
2022-10-06T01:55:20.065Z,13.50
2022-10-06T01:57:48.578Z,13.46
2022-10-06T02:00:17.874Z,13.45
2022-10-06T02:02:47.345Z,13.41
2022-10-06T02:05:15.641Z,13.38
2022-10-06T02:07:47.173Z,13.35
2022-10-06T02:10:17.058Z,13.32
2022-10-06T02:12:52.797Z,13.30
2022-10-06T02:15:22.771Z,13.24
2022-10-06T02:17:52.050Z,13.20
2022-10-06T02:20:19.720Z,13.17
2022-10-06T02:22:47.374Z,13.13
2022-10-06T02:25:15.126Z,13.08
2022-10-06T02:27:42.800Z,13.07
2022-10-06T02:30:14.379Z,13.06
2022-10-06T02:32:44.155Z,13.00
2022-10-06T02:35:13.752Z,12.98
2022-10-06T02:37:42.471Z,12.96
2022-10-06T02:40:12.799Z,12.94
2022-10-06T02:42:40.834Z,12.90
2022-10-06T02:45:09.865Z,12.87
2022-10-06T02:47:39.122Z,12.84
2022-10-06T02:50:08.768Z,12.86
2022-10-06T02:52:41.057Z,12.79
2022-10-06T02:55:10.455Z,12.76
2022-10-06T02:57:38.146Z,12.73
2022-10-06T03:00:08.379Z,12.72
2022-10-06T03:02:36.861Z,12.70
2022-10-06T03:05:07.797Z,12.68
2022-10-06T03:07:35.447Z,12.65
2022-10-06T03:10:03.470Z,12.69
2022-10-06T03:12:31.445Z,12.61
2022-10-06T03:14:59.313Z,12.60
2022-10-06T03:17:27.056Z,12.57
2022-10-06T03:19:57.932Z,12.56
2022-10-06T03:22:27.484Z,12.53
2022-10-06T03:24:57.894Z,12.51
2022-10-06T03:27:25.992Z,12.49
2022-10-06T03:29:57.245Z,12.48
2022-10-06T03:32:27.080Z,12.46
2022-10-06T03:34:54.746Z,12.42
2022-10-06T03:37:22.774Z,12.41
2022-10-06T03:39:52.211Z,12.37
2022-10-06T03:42:20.368Z,12.34
2022-10-06T03:44:48.462Z,12.33
2022-10-06T03:47:17.649Z,12.30
2022-10-06T03:49:46.635Z,12.27
2022-10-06T03:52:16.093Z,12.24
2022-10-06T03:54:43.661Z,12.23
2022-10-06T03:57:13.258Z,12.21
2022-10-06T03:59:40.951Z,12.19
2022-10-06T04:02:11.156Z,12.17
2022-10-06T04:04:38.818Z,12.13
2022-10-06T04:07:09.306Z,12.10
2022-10-06T04:09:37.491Z,12.07
2022-10-06T04:12:05.505Z,12.05
2022-10-06T04:14:37.209Z,12.01
2022-10-06T04:17:06.393Z,11.97
2022-10-06T04:19:41.471Z,11.94
2022-10-06T04:22:09.123Z,11.91
2022-10-06T04:24:37.110Z,11.89
2022-10-06T04:27:22.394Z,11.87
2022-10-06T04:30:05.895Z,11.84
2022-10-06T04:32:34.064Z,11.81
2022-10-06T04:35:01.645Z,11.77
2022-10-06T04:37:29.864Z,11.76
2022-10-06T04:39:58.482Z,11.76
2022-10-06T04:42:32.528Z,11.71
2022-10-06T04:45:03.060Z,11.69
2022-10-06T04:47:32.241Z,11.67
2022-10-06T04:49:59.852Z,11.64
2022-10-06T04:52:27.926Z,11.60
2022-10-06T04:54:55.600Z,11.58
2022-10-06T04:57:23.216Z,11.56
2022-10-06T05:00:12.566Z,11.55
2022-10-06T05:02:44.857Z,11.49
2022-10-06T05:05:12.474Z,11.47
2022-10-06T05:07:40.286Z,11.45
2022-10-06T05:10:09.276Z,11.42
2022-10-06T05:12:37.319Z,11.40
2022-10-06T05:15:05.786Z,11.38
2022-10-06T05:17:33.343Z,11.35
2022-10-06T05:20:02.602Z,11.33
2022-10-06T05:22:30.374Z,11.30
2022-10-06T05:24:59.339Z,11.31
2022-10-06T05:27:27.091Z,11.29
2022-10-06T05:29:54.690Z,11.27
2022-10-06T05:32:22.704Z,11.27
2022-10-06T05:34:50.340Z,11.23
2022-10-06T05:37:20.148Z,11.22
2022-10-06T05:39:47.755Z,11.22
2022-10-06T05:42:15.430Z,11.21
2022-10-06T05:44:43.497Z,11.20
2022-10-06T05:47:13.020Z,11.19
2022-10-06T05:49:41.075Z,11.20
2022-10-06T05:52:08.721Z,11.19
2022-10-06T05:54:39.166Z,11.18
2022-10-06T05:57:08.482Z,11.17
2022-10-06T05:59:36.560Z,11.18
2022-10-06T06:02:05.494Z,11.18
2022-10-06T06:04:38.152Z,11.19
2022-10-06T06:07:06.475Z,11.19
2022-10-06T06:09:34.435Z,11.20
2022-10-06T06:12:05.856Z,11.18
2022-10-06T06:15:20.134Z,11.20
2022-10-06T06:17:58.718Z,11.20
2022-10-06T06:20:26.319Z,11.19
2022-10-06T06:22:54.337Z,11.22
2022-10-06T06:25:26.064Z,11.21
2022-10-06T06:27:57.607Z,11.21
2022-10-06T06:30:25.967Z,11.23
2022-10-06T06:32:58.081Z,11.23
2022-10-06T06:35:25.627Z,11.26
2022-10-06T06:37:53.345Z,11.23
2022-10-06T06:40:21.443Z,11.24
2022-10-06T06:42:53.673Z,11.25
2022-10-06T06:46:03.146Z,11.26
2022-10-06T06:49:04.106Z,11.28
2022-10-06T06:51:36.462Z,11.28
2022-10-06T06:54:04.591Z,11.33
2022-10-06T06:56:35.695Z,11.33
2022-10-06T06:59:09.055Z,11.38
2022-10-06T07:01:41.347Z,11.37
2022-10-06T07:04:09.067Z,11.40
2022-10-06T07:06:39.977Z,11.45
2022-10-06T07:09:10.012Z,11.49
2022-10-06T07:11:40.763Z,11.55
2022-10-06T07:14:13.048Z,11.62
2022-10-06T07:17:03.723Z,11.75
2022-10-06T07:19:49.723Z,11.84
2022-10-06T07:22:37.760Z,11.88
2022-10-06T07:25:17.379Z,11.97
2022-10-06T07:27:51.664Z,12.06
2022-10-06T07:30:25.642Z,12.12
2022-10-06T07:33:15.698Z,12.19
2022-10-06T07:35:45.098Z,12.25
2022-10-06T07:38:14.196Z,12.33
2022-10-06T07:40:50.605Z,12.34
2022-10-06T07:43:33.124Z,12.39
2022-10-06T07:46:01.655Z,12.45
2022-10-06T07:48:38.045Z,12.48
2022-10-06T07:51:13.155Z,12.56
2022-10-06T07:53:42.428Z,12.64
2022-10-06T07:56:20.235Z,12.73
2022-10-06T07:58:51.134Z,12.89
2022-10-06T08:01:20.479Z,12.94
2022-10-06T08:03:50.559Z,13.02
2022-10-06T08:06:20.340Z,13.13
2022-10-06T08:08:52.672Z,13.27
2022-10-06T08:11:22.727Z,13.44
2022-10-06T08:13:51.648Z,13.52
2022-10-06T08:16:21.714Z,13.66
2022-10-06T08:18:53.145Z,13.73
2022-10-06T08:21:22.468Z,13.85
2022-10-06T08:23:51.707Z,13.95
2022-10-06T08:26:21.292Z,13.98
2022-10-06T08:28:51.370Z,14.04
2022-10-06T08:31:21.192Z,14.10
2022-10-06T08:33:54.865Z,14.18
2022-10-06T08:36:25.906Z,14.22
2022-10-06T08:38:56.286Z,14.26
2022-10-06T08:41:27.373Z,14.34
2022-10-06T08:44:00.919Z,14.42
2022-10-06T08:46:36.534Z,14.50
2022-10-06T08:49:06.260Z,14.57
2022-10-06T08:51:50.504Z,14.69
2022-10-06T08:54:29.450Z,14.86
2022-10-06T08:57:03.584Z,14.94
2022-10-06T08:59:34.892Z,15.11
2022-10-06T09:02:07.522Z,15.11
2022-10-06T09:04:36.590Z,15.16
2022-10-06T09:07:11.338Z,15.19
2022-10-06T09:09:58.910Z,15.17
2022-10-06T09:12:33.437Z,15.21
2022-10-06T09:15:16.324Z,15.22
2022-10-06T09:17:50.147Z,15.24
2022-10-06T09:20:26.877Z,15.24
2022-10-06T09:22:57.585Z,15.23
2022-10-06T09:25:29.034Z,15.24
2022-10-06T09:27:58.842Z,15.28
2022-10-06T09:30:27.807Z,15.33
2022-10-06T09:32:59.947Z,15.35
2022-10-06T09:35:30.510Z,15.34
2022-10-06T09:38:07.864Z,15.38
2022-10-06T09:40:42.008Z,15.39
2022-10-06T09:43:20.278Z,15.36
2022-10-06T09:45:47.974Z,15.33
2022-10-06T09:48:24.744Z,15.40
2022-10-06T09:51:13.132Z,15.35
2022-10-06T09:53:41.188Z,15.35
2022-10-06T09:56:18.634Z,15.37
2022-10-06T09:58:57.343Z,15.34
2022-10-06T10:01:27.306Z,15.36
2022-10-06T10:04:20.880Z,15.32
2022-10-06T10:06:50.102Z,15.33
2022-10-06T10:09:27.221Z,15.30
2022-10-06T10:12:20.899Z,15.36
2022-10-06T10:14:48.492Z,15.36
2022-10-06T10:17:19.814Z,15.37
2022-10-06T10:19:54.131Z,15.45
2022-10-06T10:22:26.102Z,15.42
2022-10-06T10:25:02.584Z,15.39
2022-10-06T10:27:39.335Z,15.34
2022-10-06T10:30:10.569Z,15.27
2022-10-06T10:32:49.851Z,15.23
2022-10-06T10:35:24.936Z,15.21
2022-10-06T10:38:00.428Z,15.23
2022-10-06T10:40:34.892Z,15.25
2022-10-06T10:43:11.455Z,15.18
2022-10-06T10:45:44.999Z,15.25
2022-10-06T10:48:19.262Z,15.25
2022-10-06T10:50:53.281Z,15.27
2022-10-06T10:53:31.012Z,15.31
2022-10-06T10:55:59.029Z,15.38
2022-10-06T10:58:32.571Z,15.42
2022-10-06T11:01:07.776Z,15.44
2022-10-06T11:03:35.803Z,15.48
2022-10-06T11:06:22.511Z,15.56
2022-10-06T11:08:59.917Z,15.58
2022-10-06T11:11:43.482Z,15.55
2022-10-06T11:14:23.268Z,15.60
2022-10-06T11:16:58.404Z,15.70
2022-10-06T11:19:35.359Z,15.76
2022-10-06T11:22:06.717Z,15.80
2022-10-06T11:24:46.502Z,15.82
2022-10-06T11:27:31.582Z,15.84
2022-10-06T11:30:06.552Z,15.88
2022-10-06T11:32:48.142Z,15.85
2022-10-06T11:35:20.433Z,15.82
2022-10-06T11:37:53.647Z,15.87
2022-10-06T11:40:37.678Z,15.85
2022-10-06T11:43:15.208Z,15.89
2022-10-06T11:45:49.450Z,15.91
2022-10-06T11:48:26.294Z,15.95
2022-10-06T11:50:56.125Z,15.98
2022-10-06T11:53:40.939Z,16.01
2022-10-06T11:56:37.587Z,16.02
2022-10-06T11:59:28.454Z,15.99
2022-10-06T12:02:00.688Z,15.95
2022-10-06T12:04:28.939Z,15.97
2022-10-06T12:07:01.707Z,15.96
2022-10-06T12:09:40.876Z,16.01
2022-10-06T12:12:41.952Z,15.98
2022-10-06T12:18:17.500Z,16.00
2022-10-06T12:20:59.851Z,16.00
2022-10-06T12:23:45.264Z,16.05
2022-10-06T12:26:24.924Z,16.07
2022-10-06T12:28:59.225Z,16.05
2022-10-06T12:31:52.595Z,16.08
2022-10-06T12:34:43.016Z,16.09
2022-10-06T12:37:38.083Z,16.12
2022-10-06T12:40:40.199Z,16.08
2022-10-06T12:43:28.543Z,16.09
2022-10-06T12:45:59.163Z,16.02
2022-10-06T12:48:42.959Z,16.03
2022-10-06T12:51:23.479Z,16.05
2022-10-06T12:54:00.026Z,16.06
2022-10-06T12:56:32.080Z,16.10
2022-10-06T12:58:59.590Z,16.16
2022-10-06T13:01:28.410Z,16.19
2022-10-06T13:03:57.350Z,16.17
2022-10-06T13:06:26.061Z,16.18
2022-10-06T13:09:06.750Z,16.18
2022-10-06T13:11:34.702Z,16.24
2022-10-06T13:14:10.940Z,16.22
2022-10-06T13:16:41.542Z,16.25
2022-10-06T13:19:18.984Z,16.28
2022-10-06T13:21:47.975Z,16.30
2022-10-06T13:24:20.699Z,16.34
2022-10-06T13:26:49.248Z,16.33
2022-10-06T13:29:22.306Z,16.34
2022-10-06T13:31:53.430Z,16.39
2022-10-06T13:34:29.838Z,16.44
2022-10-06T13:36:59.926Z,16.52
2022-10-06T13:39:31.577Z,16.54
2022-10-06T13:42:03.296Z,16.61
2022-10-06T13:44:37.958Z,16.63
2022-10-06T13:47:08.264Z,16.62
2022-10-06T13:49:45.476Z,16.66
2022-10-06T13:52:18.013Z,16.76
2022-10-06T13:54:49.440Z,16.70
2022-10-06T13:57:38.808Z,16.77
2022-10-06T14:00:17.170Z,16.75
2022-10-06T14:02:47.649Z,16.77
2022-10-06T14:05:38.407Z,16.81
2022-10-06T14:08:19.883Z,16.77
2022-10-06T14:10:51.238Z,16.76
2022-10-06T14:13:21.792Z,16.72
2022-10-06T14:15:50.997Z,16.73
2022-10-06T14:18:23.097Z,16.71
2022-10-06T14:20:53.275Z,16.62
2022-10-06T14:23:48.338Z,16.61
2022-10-06T14:26:17.542Z,16.61
2022-10-06T14:28:51.529Z,16.51
2022-10-06T14:31:20.073Z,16.51
2022-10-06T14:33:49.178Z,16.50
2022-10-06T14:36:20.648Z,16.47
2022-10-06T14:38:50.075Z,16.44
2022-10-06T14:41:19.641Z,16.40
2022-10-06T14:43:48.213Z,16.39
2022-10-06T14:46:15.906Z,16.39
2022-10-06T14:48:43.572Z,16.35
2022-10-06T14:51:11.655Z,16.33
2022-10-06T14:53:40.704Z,16.27
2022-10-06T14:56:10.339Z,16.26
2022-10-06T14:58:39.539Z,16.23
2022-10-06T15:01:08.421Z,16.22
2022-10-06T15:03:36.810Z,16.16
2022-10-06T15:06:23.411Z,16.14
2022-10-06T15:08:52.864Z,16.10
2022-10-06T15:11:21.465Z,16.06
2022-10-06T15:13:49.306Z,16.03
2022-10-06T15:16:18.007Z,16.01
2022-10-06T15:18:45.729Z,15.99
2022-10-06T15:21:13.279Z,15.96
2022-10-06T15:23:41.104Z,15.95
2022-10-06T15:26:29.237Z,15.93
2022-10-06T15:29:03.321Z,15.91
2022-10-06T15:31:34.938Z,15.89
2022-10-06T15:34:04.414Z,15.86
2022-10-06T15:36:34.110Z,15.84
2022-10-06T15:39:05.806Z,15.80
2022-10-06T15:41:35.110Z,15.77
2022-10-06T15:44:03.088Z,15.75
2022-10-06T15:46:31.944Z,15.71
2022-10-06T15:49:02.148Z,15.67
2022-10-06T15:51:32.152Z,15.65
2022-10-06T15:53:59.700Z,15.65
2022-10-06T15:56:28.985Z,15.57
2022-10-06T15:58:58.074Z,15.55
2022-10-06T16:01:28.201Z,15.52
2022-10-06T16:03:57.991Z,15.47
2022-10-06T16:06:41.128Z,15.45
2022-10-06T16:09:10.045Z,15.40
2022-10-06T16:11:37.758Z,15.37
2022-10-06T16:14:07.090Z,15.32
2022-10-06T16:16:37.786Z,15.27
2022-10-06T16:19:08.147Z,15.23
2022-10-06T16:21:35.920Z,15.18
2022-10-06T16:24:03.516Z,15.14
2022-10-06T16:26:31.350Z,15.09
2022-10-06T16:28:59.285Z,15.04
2022-10-06T16:31:28.481Z,14.99
2022-10-06T16:33:56.145Z,14.95
2022-10-06T16:36:24.034Z,14.90
2022-10-06T16:38:53.128Z,14.84
2022-10-06T16:41:22.938Z,14.79
2022-10-06T16:43:52.588Z,14.72
2022-10-06T16:46:22.585Z,14.67
2022-10-06T16:48:53.397Z,14.61
2022-10-06T16:51:22.811Z,14.56
2022-10-06T16:53:52.259Z,14.48
2022-10-06T16:56:22.052Z,14.37
2022-10-06T16:58:53.316Z,14.27
2022-10-06T17:01:23.252Z,14.20
2022-10-06T17:03:59.989Z,14.12
2022-10-06T17:06:27.789Z,14.02
2022-10-06T17:08:56.530Z,13.92
2022-10-06T17:11:25.851Z,13.85
2022-10-06T17:13:55.317Z,13.76
2022-10-06T17:16:25.180Z,13.69
2022-10-06T17:18:55.212Z,13.61
2022-10-06T17:21:46.354Z,13.54
2022-10-06T17:24:12.749Z,13.46
2022-10-06T17:26:41.862Z,13.36
2022-10-06T17:29:13.712Z,13.29
2022-10-06T17:31:43.204Z,13.20
2022-10-06T17:34:12.719Z,13.13
2022-10-06T17:36:44.352Z,13.03
2022-10-06T17:39:13.692Z,12.97
2022-10-06T17:41:43.220Z,12.87
2022-10-06T17:44:14.219Z,12.77
2022-10-06T17:46:43.915Z,12.73
2022-10-06T17:49:13.489Z,12.64
2022-10-06T17:51:45.069Z,12.56
2022-10-06T17:54:16.712Z,12.48
2022-10-06T17:56:46.011Z,12.40
2022-10-06T17:59:15.739Z,12.32
2022-10-06T18:01:44.787Z,12.26
2022-10-06T18:04:15.620Z,12.18
2022-10-06T18:06:46.036Z,12.10
2022-10-06T18:09:14.498Z,12.03
2022-10-06T18:11:43.740Z,11.96
2022-10-06T18:14:12.820Z,11.87
2022-10-06T18:16:42.614Z,11.81
2022-10-06T18:19:13.204Z,11.74
2022-10-06T18:21:42.364Z,11.67
2022-10-06T18:24:16.404Z,11.60
2022-10-06T18:26:45.269Z,11.53
2022-10-06T18:29:12.897Z,11.47
2022-10-06T18:31:40.592Z,11.42
2022-10-06T18:35:57.469Z,11.35
2022-10-06T18:36:58.743Z,11.27
2022-10-06T18:39:31.139Z,11.19
2022-10-06T18:41:59.073Z,11.13
2022-10-06T18:44:40.594Z,11.06
2022-10-06T18:47:25.601Z,11.00
2022-10-06T18:49:53.736Z,10.93
2022-10-06T18:52:22.537Z,10.87
2022-10-06T18:54:51.547Z,10.81
2022-10-06T18:57:20.752Z,10.75
2022-10-06T18:59:51.542Z,10.70
2022-10-06T19:02:19.204Z,10.65
2022-10-06T19:04:48.209Z,10.60
2022-10-06T19:07:15.859Z,10.55
2022-10-06T19:09:46.500Z,10.51
2022-10-06T19:12:16.184Z,10.45
2022-10-06T19:14:47.589Z,10.41
2022-10-06T19:17:15.893Z,10.37
2022-10-06T19:19:45.269Z,10.32
2022-10-06T19:22:14.561Z,10.26
2022-10-06T19:24:43.611Z,10.22
2022-10-06T19:27:12.927Z,10.17
2022-10-06T19:29:45.842Z,10.12
2022-10-06T19:32:17.065Z,10.08
2022-10-06T19:34:45.460Z,10.04
2022-10-06T19:37:13.074Z,10.03
2022-10-06T19:39:43.612Z,9.99
2022-10-06T19:42:29.677Z,9.95
2022-10-06T19:44:58.703Z,9.89
2022-10-06T19:47:26.947Z,9.84
2022-10-06T19:49:58.878Z,9.79
2022-10-06T19:52:28.557Z,9.74
2022-10-06T19:54:56.168Z,9.70
2022-10-06T19:57:23.930Z,9.66
2022-10-06T19:59:51.637Z,9.61
2022-10-06T20:02:20.546Z,9.57
2022-10-06T20:04:48.267Z,9.53
2022-10-06T20:07:15.868Z,9.49
2022-10-06T20:09:43.958Z,9.45
2022-10-06T20:12:12.111Z,9.41
2022-10-06T20:14:39.725Z,9.34
2022-10-06T20:17:07.376Z,9.31
2022-10-06T20:19:36.389Z,9.27
2022-10-06T20:22:05.931Z,9.24
2022-10-06T20:24:33.861Z,9.19
2022-10-06T20:27:01.541Z,9.15
2022-10-06T20:29:29.477Z,9.10
2022-10-06T20:31:58.996Z,9.06
2022-10-06T20:34:31.485Z,9.03
2022-10-06T20:37:02.214Z,9.00
2022-10-06T20:39:53.779Z,8.95
2022-10-06T20:42:22.005Z,8.90
2022-10-06T20:44:49.878Z,8.86
2022-10-06T20:47:17.540Z,8.83
2022-10-06T20:49:45.411Z,8.81
2022-10-06T20:52:15.049Z,8.78
2022-10-06T20:54:43.846Z,8.74
2022-10-06T20:57:11.585Z,8.72
2022-10-06T20:59:39.287Z,8.68
2022-10-06T21:02:08.020Z,8.64
2022-10-06T21:04:35.901Z,8.61
2022-10-06T21:07:06.041Z,8.60
2022-10-06T21:09:35.286Z,8.56
2022-10-06T21:12:05.293Z,8.53
2022-10-06T21:14:34.161Z,8.49
2022-10-06T21:17:02.014Z,8.48
2022-10-06T21:19:31.542Z,8.43
2022-10-06T21:21:59.887Z,8.39
2022-10-06T21:24:27.898Z,8.35
2022-10-06T21:26:57.006Z,8.33
2022-10-06T21:29:24.937Z,8.28
2022-10-06T21:31:52.717Z,8.26
2022-10-06T21:34:20.471Z,8.22
2022-10-06T21:36:48.339Z,8.19
2022-10-06T21:39:16.057Z,8.14
2022-10-06T21:41:43.842Z,8.12
2022-10-06T21:44:14.721Z,8.10
2022-10-06T21:46:46.425Z,8.07
2022-10-06T21:49:15.561Z,8.06
2022-10-06T21:51:46.272Z,8.00
2022-10-06T21:54:14.349Z,7.96
2022-10-06T21:56:42.504Z,7.95
2022-10-06T21:59:10.483Z,7.91
2022-10-06T22:01:41.197Z,7.88
2022-10-06T22:04:09.649Z,7.84
2022-10-06T22:06:38.171Z,7.80
2022-10-06T22:09:08.097Z,7.77
2022-10-06T22:11:37.645Z,7.73
2022-10-06T22:14:07.390Z,7.70
2022-10-06T22:16:36.919Z,7.66
2022-10-06T22:19:07.981Z,7.63
2022-10-06T22:21:37.765Z,7.62
2022-10-06T22:24:07.691Z,7.59
2022-10-06T22:26:37.858Z,7.59
2022-10-06T22:29:07.500Z,7.57
2022-10-06T22:31:39.189Z,7.56
2022-10-06T22:34:08.924Z,7.58
2022-10-06T22:36:36.671Z,7.54
2022-10-06T22:39:05.631Z,7.50
2022-10-06T22:41:33.660Z,7.49
2022-10-06T22:44:01.699Z,7.45
2022-10-06T22:46:31.413Z,7.45
2022-10-06T22:48:59.495Z,7.45
2022-10-06T22:51:29.083Z,7.47
2022-10-06T22:53:58.806Z,7.44
2022-10-06T22:56:26.988Z,7.46
2022-10-06T22:58:54.968Z,7.46
2022-10-06T23:01:24.816Z,7.45
2022-10-06T23:03:54.763Z,7.45
2022-10-06T23:06:22.517Z,7.45
2022-10-06T23:08:51.589Z,7.44
2022-10-06T23:11:21.693Z,7.44
2022-10-06T23:13:50.661Z,7.47
2022-10-06T23:16:19.951Z,7.44
2022-10-06T23:18:48.633Z,7.43
2022-10-06T23:21:21.811Z,7.41
2022-10-06T23:23:53.263Z,7.40
2022-10-06T23:26:22.243Z,7.41
2022-10-06T23:28:53.102Z,7.38
2022-10-06T23:31:21.198Z,7.36
2022-10-06T23:33:49.456Z,7.34
2022-10-06T23:36:17.917Z,7.31
2022-10-06T23:38:46.591Z,7.30
2022-10-06T23:41:15.976Z,7.29
2022-10-06T23:43:43.896Z,7.26
2022-10-06T23:46:12.043Z,7.22
2022-10-06T23:48:40.280Z,7.19
2022-10-06T23:51:09.831Z,7.17
2022-10-06T23:53:38.133Z,7.15
2022-10-06T23:56:06.696Z,7.13
2022-10-06T23:58:36.084Z,7.11
